sensor_id;sensor_type;location;lat;lon;timestamp;temperature;humidity
39325;DHT22;25037;49.488;9.900;2023-12-04T00:01:57;-3273.00;66.90
39325;DHT22;25037;49.488;9.900;2023-12-04T00:04:23;-3273.00;66.90
39325;DHT22;25037;49.488;9.900;2023-12-04T00:06:50;-3273.00;67.00
39325;DHT22;25037;49.488;9.900;2023-12-04T00:09:17;-3273.10;66.90
39325;DHT22;25037;49.488;9.900;2023-12-04T00:11:44;-3273.10;66.90
39325;DHT22;25037;49.488;9.900;2023-12-04T00:14:10;-3273.10;67.00
39325;DHT22;25037;49.488;9.900;2023-12-04T00:16:37;-3273.10;66.90
39325;DHT22;25037;49.488;9.900;2023-12-04T00:19:04;-3273.10;66.90
39325;DHT22;25037;49.488;9.900;2023-12-04T00:21:31;-3273.10;66.90
39325;DHT22;25037;49.488;9.900;2023-12-04T00:23:58;-3273.20;66.90
39325;DHT22;25037;49.488;9.900;2023-12-04T00:26:24;-3273.20;66.90
39325;DHT22;25037;49.488;9.900;2023-12-04T00:28:51;-3273.30;66.80
39325;DHT22;25037;49.488;9.900;2023-12-04T00:31:18;-3273.30;66.80
39325;DHT22;25037;49.488;9.900;2023-12-04T00:33:44;-3273.20;66.80
39325;DHT22;25037;49.488;9.900;2023-12-04T00:36:12;-3273.30;66.80
39325;DHT22;25037;49.488;9.900;2023-12-04T00:38:38;-3273.30;66.80
39325;DHT22;25037;49.488;9.900;2023-12-04T00:41:05;-3273.30;66.90
39325;DHT22;25037;49.488;9.900;2023-12-04T00:43:32;-3273.20;66.90
39325;DHT22;25037;49.488;9.900;2023-12-04T00:45:59;-3273.20;67.00
39325;DHT22;25037;49.488;9.900;2023-12-04T00:48:25;-3273.20;67.00
39325;DHT22;25037;49.488;9.900;2023-12-04T00:50:54;-3273.30;67.00
39325;DHT22;25037;49.488;9.900;2023-12-04T00:53:21;-3273.30;66.90
39325;DHT22;25037;49.488;9.900;2023-12-04T00:55:47;-3273.30;67.00
39325;DHT22;25037;49.488;9.900;2023-12-04T00:58:14;-3273.40;67.00
39325;DHT22;25037;49.488;9.900;2023-12-04T01:00:41;-3273.40;66.90
39325;DHT22;25037;49.488;9.900;2023-12-04T01:03:07;-3273.50;66.90
39325;DHT22;25037;49.488;9.900;2023-12-04T01:05:34;-3273.60;66.90
39325;DHT22;25037;49.488;9.900;2023-12-04T01:08:01;-3273.60;66.90
39325;DHT22;25037;49.488;9.900;2023-12-04T01:10:27;-3273.60;66.80
39325;DHT22;25037;49.488;9.900;2023-12-04T01:12:54;-3273.70;66.80
39325;DHT22;25037;49.488;9.900;2023-12-04T01:15:21;-3273.60;66.90
39325;DHT22;25037;49.488;9.900;2023-12-04T01:17:47;-3273.60;66.80
39325;DHT22;25037;49.488;9.900;2023-12-04T01:20:14;-3273.60;66.90
39325;DHT22;25037;49.488;9.900;2023-12-04T01:22:41;-3273.50;66.80
39325;DHT22;25037;49.488;9.900;2023-12-04T01:25:08;-3273.50;66.90
39325;DHT22;25037;49.488;9.900;2023-12-04T01:27:35;-3273.50;66.90
39325;DHT22;25037;49.488;9.900;2023-12-04T01:30:05;-3273.50;66.90
39325;DHT22;25037;49.488;9.900;2023-12-04T01:32:35;-3273.50;67.00
39325;DHT22;25037;49.488;9.900;2023-12-04T01:35:02;-3273.50;67.00
39325;DHT22;25037;49.488;9.900;2023-12-04T01:37:29;-3273.50;67.00
39325;DHT22;25037;49.488;9.900;2023-12-04T01:39:55;-3273.40;67.00
39325;DHT22;25037;49.488;9.900;2023-12-04T01:42:22;-3273.50;67.10
39325;DHT22;25037;49.488;9.900;2023-12-04T01:44:49;-3273.40;67.10
39325;DHT22;25037;49.488;9.900;2023-12-04T01:47:17;-3273.40;67.10
39325;DHT22;25037;49.488;9.900;2023-12-04T01:49:44;-3273.40;67.10
39325;DHT22;25037;49.488;9.900;2023-12-04T01:52:11;-3273.40;67.10
39325;DHT22;25037;49.488;9.900;2023-12-04T01:54:38;-3273.30;67.20
39325;DHT22;25037;49.488;9.900;2023-12-04T01:57:06;-3273.30;67.20
39325;DHT22;25037;49.488;9.900;2023-12-04T01:59:33;-3273.30;67.30
39325;DHT22;25037;49.488;9.900;2023-12-04T02:02:00;-3273.20;67.40
39325;DHT22;25037;49.488;9.900;2023-12-04T02:04:29;-3273.20;67.50
39325;DHT22;25037;49.488;9.900;2023-12-04T02:06:57;-3273.20;67.50
39325;DHT22;25037;49.488;9.900;2023-12-04T02:09:24;-3273.20;67.50
39325;DHT22;25037;49.488;9.900;2023-12-04T02:11:50;-3273.20;67.60
39325;DHT22;25037;49.488;9.900;2023-12-04T02:14:24;-3273.20;67.60
39325;DHT22;25037;49.488;9.900;2023-12-04T02:16:52;-3273.20;67.60
39325;DHT22;25037;49.488;9.900;2023-12-04T02:19:19;-3273.20;67.50
39325;DHT22;25037;49.488;9.900;2023-12-04T02:21:47;-3273.20;67.50
39325;DHT22;25037;49.488;9.900;2023-12-04T02:24:14;-3273.30;67.50
39325;DHT22;25037;49.488;9.900;2023-12-04T02:26:47;-3273.20;67.50
39325;DHT22;25037;49.488;9.900;2023-12-04T02:29:17;-3273.20;67.50
39325;DHT22;25037;49.488;9.900;2023-12-04T02:31:46;-3273.20;67.50
39325;DHT22;25037;49.488;9.900;2023-12-04T02:34:15;-3273.20;67.40
39325;DHT22;25037;49.488;9.900;2023-12-04T02:36:43;-3273.20;67.50
39325;DHT22;25037;49.488;9.900;2023-12-04T02:39:11;-3273.20;67.50
39325;DHT22;25037;49.488;9.900;2023-12-04T02:41:38;-3273.20;67.50
39325;DHT22;25037;49.488;9.900;2023-12-04T02:44:04;-3273.20;67.50
39325;DHT22;25037;49.488;9.900;2023-12-04T02:46:31;-3273.10;67.50
39325;DHT22;25037;49.488;9.900;2023-12-04T02:48:58;-3273.10;67.60
39325;DHT22;25037;49.488;9.900;2023-12-04T02:51:25;-3273.20;67.70
39325;DHT22;25037;49.488;9.900;2023-12-04T02:53:53;-3273.10;67.70
39325;DHT22;25037;49.488;9.900;2023-12-04T02:56:20;-3273.20;67.70
39325;DHT22;25037;49.488;9.900;2023-12-04T02:58:46;-3273.20;67.70
39325;DHT22;25037;49.488;9.900;2023-12-04T03:01:13;-3273.30;67.70
39325;DHT22;25037;49.488;9.900;2023-12-04T03:03:40;-3273.30;67.70
39325;DHT22;25037;49.488;9.900;2023-12-04T03:06:07;-3273.30;67.70
39325;DHT22;25037;49.488;9.900;2023-12-04T03:08:33;-3273.30;67.60
39325;DHT22;25037;49.488;9.900;2023-12-04T03:11:02;-3273.40;67.60
39325;DHT22;25037;49.488;9.900;2023-12-04T03:13:30;-3273.40;67.60
39325;DHT22;25037;49.488;9.900;2023-12-04T03:15:57;-3273.50;67.60
39325;DHT22;25037;49.488;9.900;2023-12-04T03:18:23;-3273.50;67.50
39325;DHT22;25037;49.488;9.900;2023-12-04T03:20:53;-3273.50;67.50
39325;DHT22;25037;49.488;9.900;2023-12-04T03:23:19;-3273.50;67.50
39325;DHT22;25037;49.488;9.900;2023-12-04T03:25:46;-3273.50;67.60
39325;DHT22;25037;49.488;9.900;2023-12-04T03:28:13;-3273.50;67.60
39325;DHT22;25037;49.488;9.900;2023-12-04T03:30:42;-3273.50;67.60
39325;DHT22;25037;49.488;9.900;2023-12-04T03:33:12;-3273.60;67.60
39325;DHT22;25037;49.488;9.900;2023-12-04T03:35:39;-3273.60;67.60
39325;DHT22;25037;49.488;9.900;2023-12-04T03:38:06;-3273.60;67.60
39325;DHT22;25037;49.488;9.900;2023-12-04T03:40:33;-3273.60;67.60
39325;DHT22;25037;49.488;9.900;2023-12-04T03:43:00;-3273.70;67.70
39325;DHT22;25037;49.488;9.900;2023-12-04T03:45:26;-3273.70;67.70
39325;DHT22;25037;49.488;9.900;2023-12-04T03:47:53;-3273.80;67.70
39325;DHT22;25037;49.488;9.900;2023-12-04T03:50:20;-3273.80;67.70
39325;DHT22;25037;49.488;9.900;2023-12-04T03:52:47;-3273.90;67.60
39325;DHT22;25037;49.488;9.900;2023-12-04T03:55:14;-3273.90;67.60
39325;DHT22;25037;49.488;9.900;2023-12-04T03:57:41;-3273.90;67.60
39325;DHT22;25037;49.488;9.900;2023-12-04T04:00:09;-3273.90;67.60
39325;DHT22;25037;49.488;9.900;2023-12-04T04:02:37;-3273.90;67.70
39325;DHT22;25037;49.488;9.900;2023-12-04T04:05:04;-3273.90;67.70
39325;DHT22;25037;49.488;9.900;2023-12-04T04:07:31;-3273.90;67.80
39325;DHT22;25037;49.488;9.900;2023-12-04T04:09:58;-3273.90;67.80
39325;DHT22;25037;49.488;9.900;2023-12-04T04:12:24;-3274.00;67.90
39325;DHT22;25037;49.488;9.900;2023-12-04T04:14:51;-3274.00;67.90
39325;DHT22;25037;49.488;9.900;2023-12-04T04:17:18;-3274.00;67.90
39325;DHT22;25037;49.488;9.900;2023-12-04T04:19:44;-3274.10;67.90
39325;DHT22;25037;49.488;9.900;2023-12-04T04:22:11;-3274.10;67.90
39325;DHT22;25037;49.488;9.900;2023-12-04T04:24:38;-3274.20;67.90
39325;DHT22;25037;49.488;9.900;2023-12-04T04:27:04;-3274.20;67.80
39325;DHT22;25037;49.488;9.900;2023-12-04T04:29:31;-3274.20;67.80
39325;DHT22;25037;49.488;9.900;2023-12-04T04:31:58;-3274.30;67.80
39325;DHT22;25037;49.488;9.900;2023-12-04T04:34:24;-3274.30;67.80
39325;DHT22;25037;49.488;9.900;2023-12-04T04:36:51;-3274.40;67.70
39325;DHT22;25037;49.488;9.900;2023-12-04T04:39:18;-3274.40;67.70
39325;DHT22;25037;49.488;9.900;2023-12-04T04:41:45;-3274.40;67.60
39325;DHT22;25037;49.488;9.900;2023-12-04T04:44:11;-3274.50;67.60
39325;DHT22;25037;49.488;9.900;2023-12-04T04:46:38;-3274.50;67.60
39325;DHT22;25037;49.488;9.900;2023-12-04T04:49:05;-3274.50;67.60
39325;DHT22;25037;49.488;9.900;2023-12-04T04:51:34;-3274.50;67.60
39325;DHT22;25037;49.488;9.900;2023-12-04T04:54:01;-3274.50;67.60
39325;DHT22;25037;49.488;9.900;2023-12-04T04:56:29;-3274.50;67.60
39325;DHT22;25037;49.488;9.900;2023-12-04T04:58:56;-3274.50;67.60
39325;DHT22;25037;49.488;9.900;2023-12-04T05:01:23;-3274.60;67.60
39325;DHT22;25037;49.488;9.900;2023-12-04T05:03:50;-3274.60;67.60
39325;DHT22;25037;49.488;9.900;2023-12-04T05:06:16;-3274.70;67.70
39325;DHT22;25037;49.488;9.900;2023-12-04T05:08:43;-3274.70;67.70
39325;DHT22;25037;49.488;9.900;2023-12-04T05:11:10;-3274.80;67.60
39325;DHT22;25037;49.488;9.900;2023-12-04T05:13:36;-3274.80;67.60
39325;DHT22;25037;49.488;9.900;2023-12-04T05:16:04;-3274.90;67.50
39325;DHT22;25037;49.488;9.900;2023-12-04T05:18:31;-3275.00;67.50
39325;DHT22;25037;49.488;9.900;2023-12-04T05:20:58;-3275.10;67.50
39325;DHT22;25037;49.488;9.900;2023-12-04T05:23:25;-3275.20;67.40
39325;DHT22;25037;49.488;9.900;2023-12-04T05:25:52;-3275.30;67.40
39325;DHT22;25037;49.488;9.900;2023-12-04T05:28:18;-3275.40;67.20
39325;DHT22;25037;49.488;9.900;2023-12-04T05:30:45;-3275.40;67.10
39325;DHT22;25037;49.488;9.900;2023-12-04T05:33:12;-3275.50;67.10
39325;DHT22;25037;49.488;9.900;2023-12-04T05:35:39;-3275.60;67.10
39325;DHT22;25037;49.488;9.900;2023-12-04T05:38:05;-3275.70;67.00
39325;DHT22;25037;49.488;9.900;2023-12-04T05:40:34;-3275.70;66.90
39325;DHT22;25037;49.488;9.900;2023-12-04T05:43:01;-3275.80;66.90
39325;DHT22;25037;49.488;9.900;2023-12-04T05:45:27;-3275.90;66.90
39325;DHT22;25037;49.488;9.900;2023-12-04T05:47:54;-3275.90;66.90
39325;DHT22;25037;49.488;9.900;2023-12-04T05:50:21;-3275.90;66.80
39325;DHT22;25037;49.488;9.900;2023-12-04T05:52:48;-3275.90;66.80
39325;DHT22;25037;49.488;9.900;2023-12-04T05:55:14;-3276.00;66.90
39325;DHT22;25037;49.488;9.900;2023-12-04T05:57:41;-3276.00;66.90
39325;DHT22;25037;49.488;9.900;2023-12-04T06:00:08;-3276.00;66.90
39325;DHT22;25037;49.488;9.900;2023-12-04T06:02:42;-3276.00;66.90
39325;DHT22;25037;49.488;9.900;2023-12-04T06:05:10;-3276.00;66.90
39325;DHT22;25037;49.488;9.900;2023-12-04T06:07:37;-3276.00;66.90
39325;DHT22;25037;49.488;9.900;2023-12-04T06:10:04;-3276.00;66.90
39325;DHT22;25037;49.488;9.900;2023-12-04T06:12:31;-3276.00;66.90
39325;DHT22;25037;49.488;9.900;2023-12-04T06:14:58;-3276.00;66.90
39325;DHT22;25037;49.488;9.900;2023-12-04T06:17:25;-3276.00;66.90
39325;DHT22;25037;49.488;9.900;2023-12-04T06:19:53;-3276.00;66.90
39325;DHT22;25037;49.488;9.900;2023-12-04T06:22:20;-3276.10;66.90
39325;DHT22;25037;49.488;9.900;2023-12-04T06:24:48;-3276.10;66.90
39325;DHT22;25037;49.488;9.900;2023-12-04T06:27:16;-3276.20;66.80
39325;DHT22;25037;49.488;9.900;2023-12-04T06:29:45;-3276.20;66.70
39325;DHT22;25037;49.488;9.900;2023-12-04T06:32:16;-3276.20;66.60
39325;DHT22;25037;49.488;9.900;2023-12-04T06:34:43;-3276.30;66.60
39325;DHT22;25037;49.488;9.900;2023-12-04T06:37:12;-3276.30;66.50
39325;DHT22;25037;49.488;9.900;2023-12-04T06:39:40;-3276.30;66.50
39325;DHT22;25037;49.488;9.900;2023-12-04T06:42:07;-3276.40;66.40
39325;DHT22;25037;49.488;9.900;2023-12-04T06:44:35;-3276.40;66.30
39325;DHT22;25037;49.488;9.900;2023-12-04T06:47:02;-3276.30;66.30
39325;DHT22;25037;49.488;9.900;2023-12-04T06:49:33;-3276.30;66.10
39325;DHT22;25037;49.488;9.900;2023-12-04T06:52:00;-3276.30;66.00
39325;DHT22;25037;49.488;9.900;2023-12-04T06:54:27;-3276.30;66.00
39325;DHT22;25037;49.488;9.900;2023-12-04T06:56:54;-3276.20;66.00
39325;DHT22;25037;49.488;9.900;2023-12-04T06:59:20;-3276.20;66.00
39325;DHT22;25037;49.488;9.900;2023-12-04T07:01:47;-3276.20;66.00
39325;DHT22;25037;49.488;9.900;2023-12-04T07:04:15;-3276.20;66.00
39325;DHT22;25037;49.488;9.900;2023-12-04T07:06:47;-3276.20;65.90
39325;DHT22;25037;49.488;9.900;2023-12-04T07:09:15;-3276.20;65.80
39325;DHT22;25037;49.488;9.900;2023-12-04T07:11:43;-3276.10;65.80
39325;DHT22;25037;49.488;9.900;2023-12-04T07:14:10;-3276.10;65.80
39325;DHT22;25037;49.488;9.900;2023-12-04T07:16:43;-3276.00;65.70
39325;DHT22;25037;49.488;9.900;2023-12-04T07:19:10;-3276.00;65.70
39325;DHT22;25037;49.488;9.900;2023-12-04T07:21:38;-3276.00;65.70
39325;DHT22;25037;49.488;9.900;2023-12-04T07:24:05;-3276.00;65.60
39325;DHT22;25037;49.488;9.900;2023-12-04T07:26:36;-3275.90;65.70
39325;DHT22;25037;49.488;9.900;2023-12-04T07:29:03;-3276.00;65.60
39325;DHT22;25037;49.488;9.900;2023-12-04T07:31:30;-3276.00;65.60
39325;DHT22;25037;49.488;9.900;2023-12-04T07:33:57;-3276.00;65.60
39325;DHT22;25037;49.488;9.900;2023-12-04T07:36:26;-3276.00;65.60
39325;DHT22;25037;49.488;9.900;2023-12-04T07:38:53;-3276.10;65.60
39325;DHT22;25037;49.488;9.900;2023-12-04T07:41:20;-3276.10;65.70
39325;DHT22;25037;49.488;9.900;2023-12-04T07:43:48;-3276.20;65.60
39325;DHT22;25037;49.488;9.900;2023-12-04T07:46:14;-3276.20;65.50
39325;DHT22;25037;49.488;9.900;2023-12-04T07:48:42;-3276.20;65.50
39325;DHT22;25037;49.488;9.900;2023-12-04T07:51:10;-3276.30;65.40
39325;DHT22;25037;49.488;9.900;2023-12-04T07:53:37;-3276.30;65.40
39325;DHT22;25037;49.488;9.900;2023-12-04T07:56:04;-3276.30;65.30
39325;DHT22;25037;49.488;9.900;2023-12-04T07:58:31;-3276.40;65.30
39325;DHT22;25037;49.488;9.900;2023-12-04T08:00:58;-3276.40;65.20
39325;DHT22;25037;49.488;9.900;2023-12-04T08:03:25;-3276.40;65.20
39325;DHT22;25037;49.488;9.900;2023-12-04T08:05:52;-3276.40;65.20
39325;DHT22;25037;49.488;9.900;2023-12-04T08:08:19;-3276.50;65.30
39325;DHT22;25037;49.488;9.900;2023-12-04T08:10:45;-3276.50;65.30
39325;DHT22;25037;49.488;9.900;2023-12-04T08:13:12;-3276.60;65.40
39325;DHT22;25037;49.488;9.900;2023-12-04T08:15:39;-3276.70;65.40
39325;DHT22;25037;49.488;9.900;2023-12-04T08:18:05;0.00;65.30
39325;DHT22;25037;49.488;9.900;2023-12-04T08:20:32;0.00;65.30
39325;DHT22;25037;49.488;9.900;2023-12-04T08:23:06;0.00;65.20
39325;DHT22;25037;49.488;9.900;2023-12-04T08:25:33;0.10;65.20
39325;DHT22;25037;49.488;9.900;2023-12-04T08:28:00;0.10;65.10
39325;DHT22;25037;49.488;9.900;2023-12-04T08:30:27;0.20;64.90
39325;DHT22;25037;49.488;9.900;2023-12-04T08:32:53;0.20;64.80
39325;DHT22;25037;49.488;9.900;2023-12-04T08:35:21;0.40;64.80
39325;DHT22;25037;49.488;9.900;2023-12-04T08:37:48;0.40;64.60
39325;DHT22;25037;49.488;9.900;2023-12-04T08:40:15;0.50;64.40
39325;DHT22;25037;49.488;9.900;2023-12-04T08:42:43;0.50;64.30
39325;DHT22;25037;49.488;9.900;2023-12-04T08:45:11;0.50;64.30
39325;DHT22;25037;49.488;9.900;2023-12-04T08:47:37;0.60;64.10
39325;DHT22;25037;49.488;9.900;2023-12-04T08:50:05;0.70;64.10
39325;DHT22;25037;49.488;9.900;2023-12-04T08:52:32;0.70;64.10
39325;DHT22;25037;49.488;9.900;2023-12-04T08:54:59;0.80;64.10
39325;DHT22;25037;49.488;9.900;2023-12-04T08:57:26;0.80;63.70
39325;DHT22;25037;49.488;9.900;2023-12-04T08:59:53;0.80;63.80
39325;DHT22;25037;49.488;9.900;2023-12-04T09:02:20;0.80;63.80
39325;DHT22;25037;49.488;9.900;2023-12-04T09:04:47;0.90;63.60
39325;DHT22;25037;49.488;9.900;2023-12-04T09:07:14;0.90;63.60
39325;DHT22;25037;49.488;9.900;2023-12-04T09:09:44;0.90;63.60
39325;DHT22;25037;49.488;9.900;2023-12-04T09:12:11;0.90;63.50
39325;DHT22;25037;49.488;9.900;2023-12-04T09:14:37;1.00;63.40
39325;DHT22;25037;49.488;9.900;2023-12-04T09:17:04;1.00;63.30
39325;DHT22;25037;49.488;9.900;2023-12-04T09:19:32;1.10;63.30
39325;DHT22;25037;49.488;9.900;2023-12-04T09:21:59;1.20;63.40
39325;DHT22;25037;49.488;9.900;2023-12-04T09:24:38;1.20;63.50
39325;DHT22;25037;49.488;9.900;2023-12-04T09:27:05;1.30;63.20
39325;DHT22;25037;49.488;9.900;2023-12-04T09:29:33;1.30;63.00
39325;DHT22;25037;49.488;9.900;2023-12-04T09:32:00;1.30;62.70
39325;DHT22;25037;49.488;9.900;2023-12-04T09:34:27;1.30;62.20
39325;DHT22;25037;49.488;9.900;2023-12-04T09:36:54;1.30;62.10
39325;DHT22;25037;49.488;9.900;2023-12-04T09:39:28;1.30;62.20
39325;DHT22;25037;49.488;9.900;2023-12-04T09:41:55;1.30;62.40
39325;DHT22;25037;49.488;9.900;2023-12-04T09:44:23;1.30;62.00
39325;DHT22;25037;49.488;9.900;2023-12-04T09:46:51;1.40;62.10
39325;DHT22;25037;49.488;9.900;2023-12-04T09:49:18;1.40;62.20
39325;DHT22;25037;49.488;9.900;2023-12-04T09:51:46;1.50;62.00
39325;DHT22;25037;49.488;9.900;2023-12-04T09:54:16;1.50;61.40
39325;DHT22;25037;49.488;9.900;2023-12-04T09:56:44;1.50;61.70
39325;DHT22;25037;49.488;9.900;2023-12-04T09:59:13;1.60;61.50
39325;DHT22;25037;49.488;9.900;2023-12-04T10:01:43;1.70;61.50
39325;DHT22;25037;49.488;9.900;2023-12-04T10:04:10;1.80;61.40
39325;DHT22;25037;49.488;9.900;2023-12-04T10:06:37;1.80;61.20
39325;DHT22;25037;49.488;9.900;2023-12-04T10:09:05;1.80;61.20
39325;DHT22;25037;49.488;9.900;2023-12-04T10:11:47;1.90;61.30
39325;DHT22;25037;49.488;9.900;2023-12-04T10:14:20;1.90;61.00
39325;DHT22;25037;49.488;9.900;2023-12-04T10:16:47;2.00;61.10
39325;DHT22;25037;49.488;9.900;2023-12-04T10:21:46;2.10;61.00
39325;DHT22;25037;49.488;9.900;2023-12-04T10:24:33;2.20;60.90
39325;DHT22;25037;49.488;9.900;2023-12-04T10:27:03;2.30;60.90
39325;DHT22;25037;49.488;9.900;2023-12-04T10:29:48;2.30;60.90
39325;DHT22;25037;49.488;9.900;2023-12-04T10:32:19;2.50;60.90
39325;DHT22;25037;49.488;9.900;2023-12-04T10:34:49;2.60;60.80
39325;DHT22;25037;49.488;9.900;2023-12-04T10:37:16;2.60;60.90
39325;DHT22;25037;49.488;9.900;2023-12-04T10:39:50;2.70;61.00
39325;DHT22;25037;49.488;9.900;2023-12-04T10:42:27;2.90;60.90
39325;DHT22;25037;49.488;9.900;2023-12-04T10:44:57;2.90;60.80
39325;DHT22;25037;49.488;9.900;2023-12-04T10:47:24;3.10;60.80
39325;DHT22;25037;49.488;9.900;2023-12-04T10:49:52;3.10;60.40
39325;DHT22;25037;49.488;9.900;2023-12-04T10:52:19;3.10;60.20
39325;DHT22;25037;49.488;9.900;2023-12-04T10:54:49;3.20;60.20
39325;DHT22;25037;49.488;9.900;2023-12-04T10:57:22;3.10;60.30
39325;DHT22;25037;49.488;9.900;2023-12-04T10:59:56;3.20;60.30
39325;DHT22;25037;49.488;9.900;2023-12-04T11:02:26;3.20;60.30
39325;DHT22;25037;49.488;9.900;2023-12-04T11:05:01;3.20;60.10
39325;DHT22;25037;49.488;9.900;2023-12-04T11:07:30;3.30;60.20
39325;DHT22;25037;49.488;9.900;2023-12-04T11:10:23;3.20;60.10
39325;DHT22;25037;49.488;9.900;2023-12-04T11:13:00;3.20;60.10
39325;DHT22;25037;49.488;9.900;2023-12-04T11:15:31;3.20;60.20
39325;DHT22;25037;49.488;9.900;2023-12-04T11:18:00;3.20;60.20
39325;DHT22;25037;49.488;9.900;2023-12-04T11:20:29;3.20;60.10
39325;DHT22;25037;49.488;9.900;2023-12-04T11:22:58;3.20;60.10
39325;DHT22;25037;49.488;9.900;2023-12-04T11:25:26;3.20;60.20
39325;DHT22;25037;49.488;9.900;2023-12-04T11:27:54;3.20;60.10
39325;DHT22;25037;49.488;9.900;2023-12-04T11:30:22;3.30;60.00
39325;DHT22;25037;49.488;9.900;2023-12-04T11:32:49;3.30;59.90
39325;DHT22;25037;49.488;9.900;2023-12-04T11:35:18;3.40;59.80
39325;DHT22;25037;49.488;9.900;2023-12-04T11:37:47;3.50;59.80
39325;DHT22;25037;49.488;9.900;2023-12-04T11:40:15;3.60;59.50
39325;DHT22;25037;49.488;9.900;2023-12-04T11:42:42;3.70;59.20
39325;DHT22;25037;49.488;9.900;2023-12-04T11:45:10;3.80;59.10
39325;DHT22;25037;49.488;9.900;2023-12-04T11:47:54;3.80;59.10
39325;DHT22;25037;49.488;9.900;2023-12-04T11:50:24;3.90;59.10
39325;DHT22;25037;49.488;9.900;2023-12-04T11:52:51;3.90;59.10
39325;DHT22;25037;49.488;9.900;2023-12-04T11:55:23;4.00;59.00
39325;DHT22;25037;49.488;9.900;2023-12-04T11:57:54;4.00;58.80
39325;DHT22;25037;49.488;9.900;2023-12-04T12:00:22;4.00;58.50
39325;DHT22;25037;49.488;9.900;2023-12-04T12:05:39;4.10;58.40
39325;DHT22;25037;49.488;9.900;2023-12-04T12:08:08;4.20;58.40
39325;DHT22;25037;49.488;9.900;2023-12-04T12:10:35;4.20;58.30
39325;DHT22;25037;49.488;9.900;2023-12-04T12:13:02;4.30;58.20
39325;DHT22;25037;49.488;9.900;2023-12-04T12:15:29;4.30;58.00
39325;DHT22;25037;49.488;9.900;2023-12-04T12:17:56;4.30;57.80
39325;DHT22;25037;49.488;9.900;2023-12-04T12:20:23;4.30;57.80
39325;DHT22;25037;49.488;9.900;2023-12-04T12:22:49;4.30;57.80
39325;DHT22;25037;49.488;9.900;2023-12-04T12:25:17;4.30;57.90
39325;DHT22;25037;49.488;9.900;2023-12-04T12:27:45;4.30;58.00
39325;DHT22;25037;49.488;9.900;2023-12-04T12:30:13;4.30;58.00
39325;DHT22;25037;49.488;9.900;2023-12-04T12:32:40;4.20;57.80
39325;DHT22;25037;49.488;9.900;2023-12-04T12:35:06;4.20;57.80
39325;DHT22;25037;49.488;9.900;2023-12-04T12:37:38;4.20;57.60
39325;DHT22;25037;49.488;9.900;2023-12-04T12:40:06;4.20;57.30
39325;DHT22;25037;49.488;9.900;2023-12-04T12:42:36;4.10;57.40
39325;DHT22;25037;49.488;9.900;2023-12-04T12:45:07;4.10;57.50
39325;DHT22;25037;49.488;9.900;2023-12-04T12:47:37;4.10;57.60
39325;DHT22;25037;49.488;9.900;2023-12-04T12:50:10;4.10;57.30
39325;DHT22;25037;49.488;9.900;2023-12-04T12:52:37;4.00;57.40
39325;DHT22;25037;49.488;9.900;2023-12-04T12:55:04;4.00;57.50
39325;DHT22;25037;49.488;9.900;2023-12-04T12:57:32;4.00;57.50
39325;DHT22;25037;49.488;9.900;2023-12-04T12:59:59;4.00;57.50
39325;DHT22;25037;49.488;9.900;2023-12-04T13:02:25;4.00;57.50
39325;DHT22;25037;49.488;9.900;2023-12-04T13:04:52;4.00;57.70
39325;DHT22;25037;49.488;9.900;2023-12-04T13:07:19;4.00;57.80
39325;DHT22;25037;49.488;9.900;2023-12-04T13:09:47;4.00;57.90
39325;DHT22;25037;49.488;9.900;2023-12-04T13:12:14;4.00;57.80
39325;DHT22;25037;49.488;9.900;2023-12-04T13:14:41;4.00;57.80
39325;DHT22;25037;49.488;9.900;2023-12-04T13:17:08;3.90;57.60
39325;DHT22;25037;49.488;9.900;2023-12-04T13:19:36;3.80;57.80
39325;DHT22;25037;49.488;9.900;2023-12-04T13:22:03;3.80;57.70
39325;DHT22;25037;49.488;9.900;2023-12-04T13:24:31;3.80;57.80
39325;DHT22;25037;49.488;9.900;2023-12-04T13:26:58;3.70;57.90
39325;DHT22;25037;49.488;9.900;2023-12-04T13:29:24;3.80;58.00
39325;DHT22;25037;49.488;9.900;2023-12-04T13:31:51;3.70;58.00
39325;DHT22;25037;49.488;9.900;2023-12-04T13:34:18;3.70;58.10
39325;DHT22;25037;49.488;9.900;2023-12-04T13:36:45;3.70;58.20
39325;DHT22;25037;49.488;9.900;2023-12-04T13:39:11;3.60;58.30
39325;DHT22;25037;49.488;9.900;2023-12-04T13:41:49;3.60;58.30
39325;DHT22;25037;49.488;9.900;2023-12-04T13:44:35;3.50;58.40
39325;DHT22;25037;49.488;9.900;2023-12-04T13:47:02;3.50;58.50
39325;DHT22;25037;49.488;9.900;2023-12-04T13:49:28;3.40;58.60
39325;DHT22;25037;49.488;9.900;2023-12-04T13:51:55;3.30;58.70
39325;DHT22;25037;49.488;9.900;2023-12-04T13:54:22;3.10;58.80
39325;DHT22;25037;49.488;9.900;2023-12-04T13:57:00;3.00;58.90
39325;DHT22;25037;49.488;9.900;2023-12-04T13:59:27;2.80;59.10
39325;DHT22;25037;49.488;9.900;2023-12-04T14:01:55;2.70;59.30
39325;DHT22;25037;49.488;9.900;2023-12-04T14:04:27;2.70;59.60
39325;DHT22;25037;49.488;9.900;2023-12-04T14:06:54;2.60;59.70
39325;DHT22;25037;49.488;9.900;2023-12-04T14:09:25;2.50;59.90
39325;DHT22;25037;49.488;9.900;2023-12-04T14:11:52;2.50;60.10
39325;DHT22;25037;49.488;9.900;2023-12-04T14:14:19;2.50;60.10
39325;DHT22;25037;49.488;9.900;2023-12-04T14:16:47;2.50;60.20
39325;DHT22;25037;49.488;9.900;2023-12-04T14:19:15;2.50;60.40
39325;DHT22;25037;49.488;9.900;2023-12-04T14:21:44;2.50;60.60
39325;DHT22;25037;49.488;9.900;2023-12-04T14:24:11;2.50;60.70
39325;DHT22;25037;49.488;9.900;2023-12-04T14:26:37;2.50;60.90
39325;DHT22;25037;49.488;9.900;2023-12-04T14:29:04;2.50;61.00
39325;DHT22;25037;49.488;9.900;2023-12-04T14:31:31;2.40;61.10
39325;DHT22;25037;49.488;9.900;2023-12-04T14:33:57;2.50;61.30
39325;DHT22;25037;49.488;9.900;2023-12-04T14:36:24;2.50;61.40
39325;DHT22;25037;49.488;9.900;2023-12-04T14:38:53;2.50;61.50
39325;DHT22;25037;49.488;9.900;2023-12-04T14:41:20;2.50;61.70
39325;DHT22;25037;49.488;9.900;2023-12-04T14:43:46;2.50;61.80
39325;DHT22;25037;49.488;9.900;2023-12-04T14:46:13;2.50;61.90
39325;DHT22;25037;49.488;9.900;2023-12-04T14:48:40;2.50;62.00
39325;DHT22;25037;49.488;9.900;2023-12-04T14:51:08;2.60;62.10
39325;DHT22;25037;49.488;9.900;2023-12-04T14:53:38;2.60;62.20
39325;DHT22;25037;49.488;9.900;2023-12-04T14:56:27;2.60;62.20
39325;DHT22;25037;49.488;9.900;2023-12-04T14:58:54;2.60;62.20
39325;DHT22;25037;49.488;9.900;2023-12-04T15:01:32;2.60;62.50
39325;DHT22;25037;49.488;9.900;2023-12-04T15:04:02;2.60;62.60
39325;DHT22;25037;49.488;9.900;2023-12-04T15:06:35;2.50;62.60
39325;DHT22;25037;49.488;9.900;2023-12-04T15:09:02;2.60;62.70
39325;DHT22;25037;49.488;9.900;2023-12-04T15:12:04;2.60;62.80
39325;DHT22;25037;49.488;9.900;2023-12-04T15:14:37;2.60;62.80
39325;DHT22;25037;49.488;9.900;2023-12-04T15:17:23;2.70;62.90
39325;DHT22;25037;49.488;9.900;2023-12-04T15:19:59;2.70;63.00
39325;DHT22;25037;49.488;9.900;2023-12-04T15:22:35;2.70;63.00
39325;DHT22;25037;49.488;9.900;2023-12-04T15:25:04;2.80;63.10